Time;durP1;ratioP1;P1;durP2;ratioP2;P2;SDS_P1;SDS_P2;PMS_P1;PMS_P2;Temp;Humidity;BMP_temperature;BMP_pressure;BME280_temperature;BME280_humidity;BME280_pressure;Samples;Min_cycle;Max_cycle;Signal;HPM_P1;HPM_P2
2020/12/21 00:00:10;;;;;;;49.93;23.80;;;;;;;-1.45;75.80;100124.81;125843;1101;104487;-69
2020/12/21 00:02:56;;;;;;;49.07;22.83;;;;;;;-1.42;74.57;100128.25;125845;1101;104487;-71
2020/12/21 00:05:24;;;;;;;48.17;23.37;;;;;;;-1.39;75.06;100129.96;125833;1101;104557;-71
2020/12/21 00:07:51;;;;;;;49.90;24.23;;;;;;;-1.37;74.98;100125.59;125913;1101;104417;-71
2020/12/21 00:10:18;;;;;;;46.27;23.43;;;;;;;-1.36;74.77;100122.11;125875;1102;104595;-71
2020/12/21 00:12:48;;;;;;;50.33;23.17;;;;;;;-1.32;75.64;100122.98;125802;1101;104558;-71
2020/12/21 00:15:15;;;;;;;49.47;23.13;;;;;;;-1.31;75.13;100119.49;125781;1101;105203;-71
2020/12/21 00:17:42;;;;;;;48.37;23.37;;;;;;;-1.32;74.88;100120.37;125789;1101;104421;-71
2020/12/21 00:20:09;;;;;;;48.73;23.10;;;;;;;-1.33;74.76;100109.05;125835;1101;104903;-69
2020/12/21 00:22:36;;;;;;;50.17;21.93;;;;;;;-1.33;74.73;100116.88;125740;1101;104583;-70
2020/12/21 00:25:03;;;;;;;48.63;23.23;;;;;;;-1.30;75.11;100123.84;125783;1101;104420;-72
2020/12/21 00:27:29;;;;;;;47.00;23.53;;;;;;;-1.30;75.19;100116.86;126946;1101;104414;-71
2020/12/21 00:29:56;;;;;;;49.65;23.05;;;;;;;-1.26;75.12;100118.56;125944;1102;104449;-71
2020/12/21 00:32:23;;;;;;;53.55;24.72;;;;;;;-1.26;75.14;100113.34;125888;1102;104708;-71
2020/12/21 00:34:50;;;;;;;48.70;21.30;;;;;;;-1.27;75.75;100119.45;125893;1101;104480;-71
2020/12/21 00:37:17;;;;;;;50.38;22.60;;;;;;;-1.27;74.72;100118.59;125883;1101;104525;-70
2020/12/21 00:39:44;;;;;;;50.60;21.50;;;;;;;-1.28;74.55;100117.71;125924;1101;104413;-70
2020/12/21 00:42:11;;;;;;;48.23;23.33;;;;;;;-1.28;74.58;100119.47;125995;1101;104484;-70
2020/12/21 00:44:38;;;;;;;54.27;25.43;;;;;;;-1.25;74.50;100124.67;125881;1101;104548;-70
2020/12/21 00:47:05;;;;;;;50.43;23.77;;;;;;;-1.23;74.65;100125.53;125855;1101;104605;-71
2020/12/21 00:49:33;;;;;;;49.70;22.20;;;;;;;-1.22;75.28;100127.23;126042;1101;104459;-71
2020/12/21 00:52:02;;;;;;;48.92;22.30;;;;;;;-1.21;75.13;100128.97;125900;1101;104436;-70
2020/12/21 00:54:29;;;;;;;48.47;21.83;;;;;;;-1.18;75.20;100120.27;125869;1101;104466;-71
2020/12/21 00:56:57;;;;;;;48.02;23.60;;;;;;;-1.21;75.10;100121.13;125827;1101;104478;-71
2020/12/21 00:59:25;;;;;;;46.77;22.83;;;;;;;-1.22;74.62;100125.50;125836;1101;104451;-71
2020/12/21 01:01:51;;;;;;;46.17;22.27;;;;;;;-1.16;75.63;100121.12;125875;1101;104555;-71
2020/12/21 01:04:18;;;;;;;46.30;22.53;;;;;;;-1.10;75.78;100119.31;125831;1101;104411;-71
2020/12/21 01:06:54;;;;;;;45.77;21.83;;;;;;;-1.07;75.37;100113.22;125858;1101;104626;-71
2020/12/21 01:09:21;;;;;;;49.90;22.15;;;;;;;-1.05;74.66;100111.46;125866;1101;104445;-71
2020/12/21 01:11:48;;;;;;;46.57;22.63;;;;;;;-1.02;75.26;100119.27;125882;1102;104513;-71
2020/12/21 01:14:15;;;;;;;48.60;21.13;;;;;;;-0.99;75.72;100110.53;125814;1101;104868;-70
2020/12/21 01:16:42;;;;;;;43.33;20.88;;;;;;;-0.99;74.90;100110.53;125897;1101;104419;-72
2020/12/21 01:19:10;;;;;;;43.77;21.77;;;;;;;-1.01;74.53;100114.91;125922;1101;104485;-71
2020/12/21 01:21:37;;;;;;;44.17;19.87;;;;;;;-1.01;74.50;100110.53;125822;1101;104548;-71
2020/12/21 01:24:05;;;;;;;43.27;20.37;;;;;;;-0.95;75.34;100107.87;125857;1101;104546;-71
2020/12/21 01:26:32;;;;;;;47.30;22.70;;;;;;;-0.88;75.17;100108.70;125829;1101;104433;-72
2020/12/21 01:28:59;;;;;;;46.67;22.37;;;;;;;-0.80;74.96;100103.39;126766;1101;104421;-72
2020/12/21 01:31:26;;;;;;;46.63;21.60;;;;;;;-0.82;75.10;100098.20;125974;1101;104484;-71
2020/12/21 01:34:13;;;;;;;48.03;21.30;;;;;;;-0.88;75.25;100102.59;125869;1101;104422;-71
2020/12/21 01:36:44;;;;;;;46.13;21.07;;;;;;;-0.82;75.45;100105.16;125913;1101;104525;-70
2020/12/21 01:39:11;;;;;;;50.70;22.03;;;;;;;-0.81;75.06;100106.89;125866;1101;104515;-71
2020/12/21 01:41:39;;;;;;;48.20;21.10;;;;;;;-0.79;75.53;100102.52;125924;1101;104477;-70
2020/12/21 01:44:06;;;;;;;48.77;21.83;;;;;;;-0.76;75.08;100099.88;125944;1101;104554;-70
2020/12/21 01:46:33;;;;;;;49.38;21.40;;;;;;;-0.73;75.22;100098.97;125907;1101;104584;-70
2020/12/21 01:49:00;;;;;;;47.17;21.90;;;;;;;-0.72;75.20;100098.09;125889;1101;104477;-70
2020/12/21 01:51:30;;;;;;;51.10;23.33;;;;;;;-0.72;75.13;100096.36;125748;1101;104433;-71
2020/12/21 01:53:59;;;;;;;55.50;24.30;;;;;;;-0.77;75.36;100098.14;127813;1101;102237;-70
2020/12/21 01:56:31;;;;;;;53.50;22.53;;;;;;;-0.82;74.42;100092.09;126164;1101;104417;-71
2020/12/21 01:58:58;;;;;;;51.20;22.60;;;;;;;-0.81;75.16;100096.44;125862;1101;104474;-70
2020/12/21 02:01:27;;;;;;;46.67;22.80;;;;;;;-0.83;75.53;100090.36;125891;1101;104440;-69
2020/12/21 02:03:54;;;;;;;45.83;21.77;;;;;;;-0.83;75.01;100099.08;125857;1101;104477;-71
2020/12/21 02:06:21;;;;;;;48.13;23.05;;;;;;;-0.80;75.33;100099.02;125882;1101;104538;-70
2020/12/21 02:08:48;;;;;;;52.40;24.63;;;;;;;-0.80;74.95;100096.41;125900;1101;104606;-70
2020/12/21 02:11:15;;;;;;;49.73;22.77;;;;;;;-0.79;75.33;100094.68;125846;1101;104477;-70
2020/12/21 02:13:44;;;;;;;49.20;23.53;;;;;;;-0.85;74.98;100086.89;125906;1101;104436;-70
2020/12/21 02:16:15;;;;;;;55.20;25.40;;;;;;;-0.88;74.53;100094.76;126374;1101;104427;-70
2020/12/21 02:18:43;;;;;;;49.47;22.50;;;;;;;-0.98;75.13;100092.22;125904;1101;104483;-70
2020/12/21 02:21:11;;;;;;;46.40;23.90;;;;;;;-0.99;75.30;100098.33;126446;1101;104446;-70
2020/12/21 02:23:38;;;;;;;48.67;24.63;;;;;;;-0.97;75.60;100087.87;125823;1101;104439;-70
2020/12/21 02:26:07;;;;;;;45.90;20.63;;;;;;;-0.98;75.19;100091.37;125910;1101;104523;-69
2020/12/21 02:28:34;;;;;;;42.90;21.33;;;;;;;-1.02;74.71;100093.16;125842;1101;104508;-70
2020/12/21 02:31:01;;;;;;;39.03;18.17;;;;;;;-1.07;74.62;100092.33;125871;1101;104416;-70
2020/12/21 02:33:29;;;;;;;40.03;20.93;;;;;;;-1.07;75.06;100090.56;125849;1101;104471;-69
2020/12/21 02:35:56;;;;;;;42.60;19.97;;;;;;;-1.13;74.65;100094.98;125861;1097;104596;-70
2020/12/21 02:38:23;;;;;;;45.73;21.37;;;;;;;-1.13;75.29;100089.77;125888;1102;104475;-73
2020/12/21 02:40:50;;;;;;;40.90;20.30;;;;;;;-1.16;74.81;100087.17;125952;1102;104880;-71
2020/12/21 02:43:22;;;;;;;38.40;18.13;;;;;;;-1.22;74.52;100088.95;125881;1101;104503;-70
2020/12/21 02:45:49;;;;;;;36.85;16.50;;;;;;;-1.35;74.12;100090.80;125864;1093;104485;-72
2020/12/21 02:48:18;;;;;;;35.57;16.73;;;;;;;-1.43;74.97;100089.98;125778;1093;104516;-73
2020/12/21 02:50:46;;;;;;;37.23;16.93;;;;;;;-1.43;74.35;100083.91;125816;1101;104894;-71
2020/12/21 02:53:17;;;;;;;37.63;19.33;;;;;;;-1.42;74.55;100081.27;126438;1101;104418;-71
2020/12/21 02:55:46;;;;;;;37.07;18.00;;;;;;;-1.43;74.68;100073.47;125884;1101;104503;-70
2020/12/21 02:58:14;;;;;;;36.87;17.30;;;;;;;-1.46;75.28;100068.27;125839;1101;104493;-70
2020/12/21 03:00:43;;;;;;;38.00;17.30;;;;;;;-1.49;75.02;100071.75;125904;1101;104429;-70
2020/12/21 03:03:13;;;;;;;40.00;17.77;;;;;;;-1.51;74.87;100079.61;125799;1101;104546;-70
2020/12/21 03:05:43;;;;;;;37.67;16.70;;;;;;;-1.47;75.41;100075.22;127262;1101;102485;-70
2020/12/21 03:08:11;;;;;;;40.90;18.10;;;;;;;-1.37;74.37;100076.01;125812;1102;104558;-69
2020/12/21 03:10:39;;;;;;;38.00;19.27;;;;;;;-1.33;74.62;100071.65;125739;1102;104678;-70
2020/12/21 03:13:07;;;;;;;40.40;19.23;;;;;;;-1.28;74.26;100075.09;125970;1101;104519;-69
2020/12/21 03:15:35;;;;;;;38.87;17.73;;;;;;;-1.28;74.52;100068.11;125902;1101;104483;-70
2020/12/21 03:18:03;;;;;;;37.43;17.53;;;;;;;-1.24;74.94;100063.75;125785;1101;104548;-71
2020/12/21 03:20:32;;;;;;;37.47;17.93;;;;;;;-1.15;75.64;100070.63;125852;1101;105002;-70
2020/12/21 03:22:59;;;;;;;42.47;18.63;;;;;;;-1.07;75.23;100067.06;125875;1101;104563;-70
2020/12/21 03:25:26;;;;;;;38.80;18.00;;;;;;;-1.01;75.58;100062.67;125782;1101;105038;-70
2020/12/21 03:27:53;;;;;;;37.57;18.53;;;;;;;-0.94;75.58;100065.20;125841;1101;104439;-70
2020/12/21 03:30:21;;;;;;;39.33;17.40;;;;;;;-0.90;74.56;100072.13;125816;1101;104494;-70
2020/12/21 03:32:53;;;;;;;36.27;17.07;;;;;;;-0.84;75.18;100068.61;125870;1101;104459;-71
2020/12/21 03:35:29;;;;;;;37.00;17.50;;;;;;;-0.82;75.10;100068.58;125855;1101;104596;-70
2020/12/21 03:37:56;;;;;;;36.60;15.50;;;;;;;-0.81;75.46;100068.55;125847;1102;104429;-69
2020/12/21 03:40:23;;;;;;;37.45;18.15;;;;;;;-0.80;74.69;100069.44;126284;1101;104468;-69
2020/12/21 03:42:50;;;;;;;39.07;16.83;;;;;;;-0.80;74.82;100069.44;125890;1101;104436;-69
2020/12/21 03:45:18;;;;;;;43.37;19.47;;;;;;;-0.81;75.40;100068.55;125885;1101;104475;-70
2020/12/21 03:47:47;;;;;;;37.87;18.67;;;;;;;-0.83;74.94;100054.67;125830;1101;104413;-71
2020/12/21 03:50:14;;;;;;;40.10;17.17;;;;;;;-0.91;74.13;100059.95;125881;1101;104426;-70
2020/12/21 03:52:42;;;;;;;40.33;17.97;;;;;;;-0.94;74.25;100064.34;125811;1101;104490;-70
2020/12/21 03:55:10;;;;;;;41.90;18.55;;;;;;;-0.99;75.09;100056.54;125795;1101;104442;-70
2020/12/21 03:57:37;;;;;;;41.60;18.13;;;;;;;-0.96;75.35;100053.90;125870;1101;104487;-70
2020/12/21 04:00:07;;;;;;;42.07;19.13;;;;;;;-0.96;74.25;100061.73;125862;1101;104436;-71
2020/12/21 04:02:37;;;;;;;44.53;19.20;;;;;;;-1.04;74.71;100058.35;125821;1101;104464;-71
2020/12/21 04:05:04;;;;;;;38.25;17.45;;;;;;;-1.04;75.57;100063.58;125916;1101;104903;-71
2020/12/21 04:07:37;;;;;;;41.30;18.63;;;;;;;-1.01;75.37;100062.67;125884;1101;104935;-70
2020/12/21 04:10:08;;;;;;;40.37;16.87;;;;;;;-1.01;74.51;100057.45;125905;1101;104432;-70
2020/12/21 04:12:36;;;;;;;40.83;17.70;;;;;;;-1.00;74.64;100056.56;125722;1102;104484;-70
2020/12/21 04:15:06;;;;;;;41.97;18.37;;;;;;;-1.01;74.92;100063.52;125820;1101;104439;-70
2020/12/21 04:17:35;;;;;;;40.83;17.93;;;;;;;-0.99;75.42;100066.13;125772;1094;104555;-70
2020/12/21 04:20:02;;;;;;;40.33;19.23;;;;;;;-0.98;75.33;100076.55;125773;1101;104440;-71
2020/12/21 04:22:30;;;;;;;43.27;20.57;;;;;;;-0.99;74.34;100066.98;125834;1101;104484;-70
2020/12/21 04:24:57;;;;;;;44.30;19.67;;;;;;;-0.99;74.40;100068.75;126309;1101;104561;-70
2020/12/21 04:27:24;;;;;;;39.07;18.50;;;;;;;-1.07;74.44;100066.22;126228;1096;104481;-70
2020/12/21 04:29:50;;;;;;;40.83;19.57;;;;;;;-1.09;75.33;100071.43;125870;1101;104881;-70
2020/12/21 04:32:17;;;;;;;41.83;19.33;;;;;;;-1.13;74.09;100069.73;125833;1101;104433;-69
2020/12/21 04:34:45;;;;;;;38.73;18.80;;;;;;;-1.15;74.73;100068.88;125830;1101;104487;-70
2020/12/21 04:37:13;;;;;;;38.35;18.98;;;;;;;-1.11;74.28;100067.12;125914;1101;104432;-70
2020/12/21 04:39:42;;;;;;;41.87;19.17;;;;;;;-1.03;74.86;100069.65;125911;1101;104532;-70
2020/12/21 04:42:10;;;;;;;42.20;18.02;;;;;;;-0.97;75.32;100066.98;125902;1101;104558;-71
2020/12/21 04:44:40;;;;;;;38.33;17.50;;;;;;;-0.94;75.01;100067.81;125859;1101;104535;-71
2020/12/21 04:47:08;;;;;;;42.87;19.30;;;;;;;-0.96;74.92;100071.33;125912;1097;105066;-70
2020/12/21 04:49:37;;;;;;;43.57;18.43;;;;;;;-0.98;75.22;100060.03;125854;1101;104448;-70
2020/12/21 04:52:06;;;;;;;41.97;19.10;;;;;;;-0.98;75.31;100058.27;126239;1096;104426;-71
2020/12/21 04:54:33;;;;;;;44.97;18.57;;;;;;;-0.98;74.90;100062.64;126313;1101;104435;-70
2020/12/21 04:57:00;;;;;;;37.53;16.67;;;;;;;-1.02;74.42;100058.33;125862;1101;104547;-70
2020/12/21 04:59:29;;;;;;;37.70;16.67;;;;;;;-1.09;74.32;100057.52;125827;1101;104611;-70
2020/12/21 05:01:56;;;;;;;34.13;15.13;;;;;;;-1.11;74.13;100059.28;125847;1102;104504;-71
2020/12/21 05:04:25;;;;;;;34.33;16.10;;;;;;;-1.26;74.36;100047.23;125910;1101;104471;-70
2020/12/21 05:06:55;;;;;;;35.57;16.27;;;;;;;-1.35;74.08;100064.70;125896;1101;104421;-70
2020/12/21 05:09:24;;;;;;;32.55;15.55;;;;;;;-1.47;74.98;100062.17;125939;1101;104426;-70
2020/12/21 05:12:03;;;;;;;34.17;15.37;;;;;;;-1.59;74.42;100054.42;125901;1101;104717;-70
2020/12/21 05:14:35;;;;;;;32.27;14.80;;;;;;;-1.69;74.90;100062.34;125847;1096;104429;-70
2020/12/21 05:17:17;;;;;;;34.67;16.67;;;;;;;-1.62;75.47;100060.54;125898;1101;104528;-71
2020/12/21 05:19:44;;;;;;;33.73;15.33;;;;;;;-1.68;74.62;100066.67;125917;1096;104551;-70
2020/12/21 05:22:16;;;;;;;35.00;16.33;;;;;;;-1.89;74.39;100070.28;125812;1101;104571;-71
2020/12/21 05:24:44;;;;;;;34.85;16.17;;;;;;;-1.88;74.36;100078.95;125852;1101;104488;-69
2020/12/21 05:27:18;;;;;;;34.00;15.60;;;;;;;-1.82;74.33;100084.99;125716;1096;104442;-68
2020/12/21 05:29:53;;;;;;;34.83;17.40;;;;;;;-1.73;74.24;100086.70;125823;1101;104482;-69
2020/12/21 05:32:21;;;;;;;35.23;16.50;;;;;;;-1.62;75.70;100088.36;125830;1101;104510;-70
2020/12/21 05:34:51;;;;;;;34.30;18.47;;;;;;;-1.51;75.45;100084.83;125849;1101;104478;-70
2020/12/21 05:37:20;;;;;;;37.33;17.70;;;;;;;-1.45;74.98;100083.05;125878;1101;104581;-69
2020/12/21 05:39:52;;;;;;;34.97;15.90;;;;;;;-1.48;75.10;100088.29;125762;1101;104461;-70
2020/12/21 05:42:21;;;;;;;32.37;14.87;;;;;;;-1.54;75.15;100086.57;125801;1101;104551;-69
2020/12/21 05:44:51;;;;;;;34.83;15.87;;;;;;;-1.50;75.40;100089.17;125895;1101;104423;-70
2020/12/21 05:47:18;;;;;;;33.07;15.50;;;;;;;-1.46;75.48;100087.39;125748;1101;104414;-69
2020/12/21 05:49:59;;;;;;;34.27;16.50;;;;;;;-1.40;74.45;100087.35;125900;1101;104592;-69
2020/12/21 05:52:31;;;;;;;34.37;16.10;;;;;;;-1.36;74.78;100085.57;126361;1093;104436;-69
2020/12/21 05:55:07;;;;;;;35.43;15.93;;;;;;;-1.28;74.83;100090.76;125828;1101;104627;-71
2020/12/21 05:57:37;;;;;;;34.23;16.03;;;;;;;-1.31;74.80;100091.63;126626;1101;104608;-69
2020/12/21 06:00:11;;;;;;;35.57;16.63;;;;;;;-1.45;73.71;100096.10;125801;1101;104883;-69
2020/12/21 06:02:38;;;;;;;35.80;17.83;;;;;;;-1.60;74.89;100095.31;125778;1101;104503;-69
2020/12/21 06:05:08;;;;;;;36.53;18.67;;;;;;;-1.71;74.82;100100.61;125779;1101;104442;-69
2020/12/21 06:07:38;;;;;;;39.60;18.50;;;;;;;-1.84;74.53;100102.42;125837;1101;104506;-69
2020/12/21 06:10:08;;;;;;;37.50;17.90;;;;;;;-2.00;74.33;100104.21;125746;1101;104484;-69
2020/12/21 06:12:50;;;;;;;36.40;17.13;;;;;;;-2.19;74.48;100103.42;125807;1101;104452;-68
2020/12/21 06:15:25;;;;;;;34.55;17.20;;;;;;;-2.23;74.88;100098.23;125854;1101;104541;-68
2020/12/21 06:17:52;;;;;;;34.37;17.17;;;;;;;-2.33;73.94;100100.87;125936;1101;104567;-69
2020/12/21 06:20:21;;;;;;;37.27;16.93;;;;;;;-2.42;73.72;100100.89;125763;1101;104532;-69
2020/12/21 06:22:48;;;;;;;39.33;19.67;;;;;;;-2.38;74.46;100102.62;125765;1101;104595;-69
2020/12/21 06:25:23;;;;;;;36.87;18.33;;;;;;;-2.16;74.83;100099.95;125802;1101;104458;-69
2020/12/21 06:27:55;;;;;;;36.67;17.97;;;;;;;-2.02;74.09;100100.73;125858;1101;104449;-69
2020/12/21 06:30:30;;;;;;;37.50;18.47;;;;;;;-1.96;74.14;100102.47;126621;1101;104465;-68
2020/12/21 06:33:03;;;;;;;36.83;17.63;;;;;;;-1.94;74.81;100113.77;126103;1101;104478;-70
2020/12/21 06:35:41;;;;;;;36.45;17.45;;;;;;;-1.90;74.64;100109.39;125811;1101;104487;-69
2020/12/21 06:38:08;;;;;;;37.97;18.77;;;;;;;-1.92;74.98;100125.06;125888;1101;104419;-69
2020/12/21 06:40:35;;;;;;;40.27;19.37;;;;;;;-1.80;75.23;100124.13;125897;1101;104666;-69
2020/12/21 06:43:14;;;;;;;38.35;19.20;;;;;;;-1.64;74.60;100122.30;125751;1101;104529;-69
2020/12/21 06:45:44;;;;;;;36.33;18.53;;;;;;;-1.52;75.51;100122.23;125828;1101;104477;-69
2020/12/21 06:48:22;;;;;;;41.87;19.93;;;;;;;-1.46;74.45;100131.75;125847;1101;104446;-70
2020/12/21 06:50:49;;;;;;;36.87;17.73;;;;;;;-1.32;75.13;100139.49;125966;1101;104421;-69
2020/12/21 06:53:16;;;;;;;39.17;19.00;;;;;;;-1.22;75.72;100141.17;125669;1101;104609;-70
2020/12/21 06:55:45;;;;;;;38.67;19.97;;;;;;;-1.14;74.62;100140.25;125582;1096;104525;-70
2020/12/21 06:58:15;;;;;;;39.47;20.43;;;;;;;-1.03;75.07;100138.44;125701;1101;104872;-70
2020/12/21 07:00:43;;;;;;;44.03;21.30;;;;;;;-0.93;74.61;100131.38;126267;1101;104500;-69
2020/12/21 07:03:11;;;;;;;42.53;21.40;;;;;;;-0.93;75.21;100140.06;125620;1097;104630;-70
2020/12/21 07:05:38;;;;;;;45.33;21.90;;;;;;;-0.96;74.42;100132.25;125642;1096;104596;-70
2020/12/21 07:08:08;;;;;;;43.70;22.00;;;;;;;-0.97;75.48;100129.67;125716;1102;104427;-69
2020/12/21 07:10:40;;;;;;;44.33;21.37;;;;;;;-0.96;74.94;100126.18;125630;1096;104843;-69
2020/12/21 07:13:12;;;;;;;42.43;22.13;;;;;;;-0.95;75.00;100128.77;125699;1101;104551;-69
2020/12/21 07:15:40;;;;;;;45.63;22.37;;;;;;;-0.93;74.16;100139.22;125709;1101;104439;-68
2020/12/21 07:18:11;;;;;;;50.50;24.98;;;;;;;-0.92;74.72;100147.02;125613;1101;104641;-69
2020/12/21 07:20:42;;;;;;;47.57;24.03;;;;;;;-0.84;75.21;100144.37;125676;1093;104430;-70
2020/12/21 07:23:09;;;;;;;42.90;23.30;;;;;;;-0.80;75.42;100159.11;125773;1093;104544;-69
2020/12/21 07:25:37;;;;;;;54.80;27.77;;;;;;;-0.71;74.86;100159.91;125775;1101;104490;-69
2020/12/21 07:28:06;;;;;;;52.50;26.70;;;;;;;-0.65;75.09;100152.91;125859;1101;104416;-69
2020/12/21 07:30:33;;;;;;;45.63;24.02;;;;;;;-0.57;74.68;100158.05;125842;1101;104913;-69
2020/12/21 07:33:05;;;;;;;43.23;22.23;;;;;;;-0.64;75.20;100157.25;125555;1093;104532;-69
2020/12/21 07:35:32;;;;;;;41.98;20.97;;;;;;;-0.65;74.96;100157.25;125577;1093;104893;-69
2020/12/21 07:38:12;;;;;;;45.73;22.97;;;;;;;-0.74;74.76;100152.98;126498;1101;104455;-70
2020/12/21 07:40:44;;;;;;;44.53;21.90;;;;;;;-0.85;74.01;100154.81;126136;1097;104486;-69
2020/12/21 07:43:20;;;;;;;39.17;18.90;;;;;;;-0.99;74.75;100153.17;126985;1093;104634;-69
2020/12/21 07:45:51;;;;;;;46.93;22.67;;;;;;;-1.20;73.88;100151.59;125807;1093;104510;-69
2020/12/21 07:48:19;;;;;;;45.67;23.90;;;;;;;-1.28;74.94;100163.84;125649;1096;104497;-71
2020/12/21 07:50:47;;;;;;;46.80;23.07;;;;;;;-1.30;74.68;100156.02;125665;1093;104484;-70
2020/12/21 07:53:15;;;;;;;48.17;22.47;;;;;;;-1.24;75.29;100158.59;125729;1101;104481;-72
2020/12/21 07:55:54;;;;;;;49.23;24.90;;;;;;;-1.15;75.47;100152.42;125571;1093;104471;-70
2020/12/21 07:58:22;;;;;;;46.10;23.60;;;;;;;-1.09;74.43;100148.92;125689;1096;104605;-69
2020/12/21 08:00:56;;;;;;;50.80;24.50;;;;;;;-1.05;74.65;100148.02;126866;1096;103585;-70
2020/12/21 08:03:28;;;;;;;51.97;25.03;;;;;;;-0.95;75.62;100156.64;125585;1093;104423;-71
2020/12/21 08:06:06;;;;;;;53.73;26.63;;;;;;;-0.84;74.75;100156.55;125758;1093;104571;-70
2020/12/21 08:08:34;;;;;;;52.67;26.10;;;;;;;-0.81;75.23;100152.15;125805;1101;104583;-69
2020/12/21 08:11:02;;;;;;;50.27;26.83;;;;;;;-0.76;75.00;100147.75;125827;1101;104455;-69
2020/12/21 08:13:30;;;;;;;46.87;23.43;;;;;;;-0.73;74.40;100149.49;125779;1101;104445;-69
2020/12/21 08:16:09;;;;;;;48.43;25.50;;;;;;;-0.81;75.13;100159.14;125713;1101;104490;-69
2020/12/21 08:18:37;;;;;;;56.53;27.30;;;;;;;-0.91;75.19;100159.20;125854;1101;104529;-68
2020/12/21 08:21:06;;;;;;;56.43;29.23;;;;;;;-0.94;74.49;100155.77;125794;1101;104436;-71
2020/12/21 08:23:34;;;;;;;55.65;28.35;;;;;;;-1.02;74.91;100153.23;125699;1101;104525;-69
2020/12/21 08:26:14;;;;;;;56.00;30.43;;;;;;;-1.07;74.42;100150.62;125701;1101;104478;-69
2020/12/21 08:28:42;;;;;;;60.63;31.27;;;;;;;-1.06;74.21;100156.73;125643;1101;104417;-69
2020/12/21 08:31:15;;;;;;;60.53;32.23;;;;;;;-1.11;74.37;100161.12;127777;1097;105376;-69
2020/12/21 08:33:54;;;;;;;60.73;34.07;;;;;;;-1.10;74.47;100157.63;127835;1102;104269;-69
2020/12/21 08:36:26;;;;;;;55.17;30.13;;;;;;;-1.12;75.17;100162.00;127793;1101;102593;-69
2020/12/21 08:39:10;;;;;;;59.97;32.97;;;;;;;-1.14;74.74;100159.37;127839;1096;102208;-69
2020/12/21 08:41:39;;;;;;;52.50;25.17;;;;;;;-1.08;74.91;100155.87;127808;1094;102238;-69
2020/12/21 08:44:08;;;;;;;61.77;32.27;;;;;;;-1.11;74.88;100155.90;127895;1101;102188;-69
2020/12/21 08:46:35;;;;;;;58.90;30.43;;;;;;;-1.13;75.20;100155.04;125998;1101;104672;-70
2020/12/21 08:49:02;;;;;;;62.07;34.83;;;;;;;-1.11;74.34;100151.52;125660;1096;104449;-70
2020/12/21 08:51:30;;;;;;;55.87;30.43;;;;;;;-1.08;74.90;100154.12;125665;1096;104460;-69
2020/12/21 08:53:57;;;;;;;60.73;34.00;;;;;;;-1.05;75.22;100161.08;125704;1096;104547;-69
2020/12/21 08:56:25;;;;;;;60.23;33.13;;;;;;;-0.88;75.39;100157.45;125598;1093;104422;-69
2020/12/21 08:58:52;;;;;;;64.03;32.75;;;;;;;-0.74;75.32;100166.05;125676;1101;104458;-70
2020/12/21 09:01:19;;;;;;;65.40;33.20;;;;;;;-0.63;75.25;100164.22;125658;1101;104481;-70
2020/12/21 09:03:48;;;;;;;62.57;33.80;;;;;;;-0.53;75.60;100153.65;127000;1094;104384;-71
2020/12/21 09:06:20;;;;;;;73.40;39.60;;;;;;;-0.42;75.61;100154.42;125677;1101;104577;-69
2020/12/21 09:08:57;;;;;;;64.37;33.47;;;;;;;-0.35;75.01;100156.09;125774;1101;104623;-70
2020/12/21 09:11:27;;;;;;;64.13;34.67;;;;;;;-0.39;75.05;100156.13;125789;1101;104638;-70
2020/12/21 09:13:54;;;;;;;59.33;32.97;;;;;;;-0.44;74.74;100150.95;125691;1093;104422;-68
2020/12/21 09:16:26;;;;;;;63.50;35.07;;;;;;;-0.48;75.46;100147.52;125775;1101;104413;-69
2020/12/21 09:18:57;;;;;;;62.10;34.23;;;;;;;-0.52;75.27;100153.66;125596;1101;104478;-70
2020/12/21 09:21:30;;;;;;;58.83;33.93;;;;;;;-0.50;75.20;100151.89;125873;1101;104445;-70
2020/12/21 09:24:00;;;;;;;58.17;32.50;;;;;;;-0.47;75.51;100148.37;125658;1101;104420;-70
2020/12/21 09:26:29;;;;;;;62.90;34.53;;;;;;;-0.53;75.10;100148.42;125865;1101;104544;-74
2020/12/21 09:28:56;;;;;;;59.67;34.60;;;;;;;-0.51;75.60;100136.20;125802;1097;104443;-70
2020/12/21 09:31:24;;;;;;;68.17;38.63;;;;;;;-0.50;75.48;100133.59;125422;1093;104570;-73
2020/12/21 09:33:52;;;;;;;62.80;33.83;;;;;;;-0.39;75.81;100132.59;125525;1101;104459;-70
2020/12/21 09:36:20;;;;;;;65.43;37.47;;;;;;;-0.35;74.97;100132.56;127048;1093;104542;-70
2020/12/21 09:38:50;;;;;;;63.50;35.23;;;;;;;-0.33;75.35;100137.77;125685;1096;104410;-71
2020/12/21 09:41:20;;;;;;;66.53;35.57;;;;;;;-0.31;75.73;100126.42;125693;1102;104468;-69
2020/12/21 09:43:48;;;;;;;59.90;34.53;;;;;;;-0.29;74.99;100121.16;125580;1101;104461;-69
2020/12/21 09:46:18;;;;;;;62.80;34.60;;;;;;;-0.27;75.24;100119.39;125634;1101;104446;-70
2020/12/21 09:48:47;;;;;;;53.87;29.17;;;;;;;-0.27;75.62;100119.39;125535;1101;103907;-69
2020/12/21 09:51:15;;;;;;;52.17;26.83;;;;;;;-0.30;75.04;100116.81;125790;1102;104977;-73
2020/12/21 09:53:43;;;;;;;57.30;32.00;;;;;;;-0.28;75.87;100112.44;125652;1101;104551;-71
2020/12/21 09:56:15;;;;;;;58.87;31.03;;;;;;;-0.26;75.46;100108.05;125537;1101;104432;-70
2020/12/21 09:58:46;;;;;;;61.90;33.80;;;;;;;-0.21;75.59;100102.80;125685;1101;104423;-68
2020/12/21 10:01:13;;;;;;;56.25;32.55;;;;;;;-0.10;75.65;100098.27;125453;1101;104583;-71
2020/12/21 10:03:41;;;;;;;63.13;32.87;;;;;;;0.01;75.63;100099.90;125526;1096;104448;-70
2020/12/21 10:06:10;;;;;;;61.17;31.20;;;;;;;0.03;75.58;100098.98;125571;1101;104423;-68
2020/12/21 10:08:39;;;;;;;62.30;34.25;;;;;;;0.07;75.50;100091.98;125664;1096;104513;-70
2020/12/21 10:11:06;;;;;;;66.90;34.13;;;;;;;0.11;75.66;100091.05;125680;1101;104487;-69
2020/12/21 10:13:35;;;;;;;61.90;32.93;;;;;;;0.12;75.61;100098.86;125747;1101;104516;-71
2020/12/21 10:16:03;;;;;;;57.37;32.17;;;;;;;0.13;75.49;100089.28;125562;1101;104534;-69
2020/12/21 10:18:30;;;;;;;64.63;35.20;;;;;;;0.12;75.62;100091.02;125561;1102;104917;-70
2020/12/21 10:20:56;;;;;;;57.15;32.65;;;;;;;0.11;75.60;100099.75;125579;1101;104884;-69
2020/12/21 10:23:24;;;;;;;57.93;31.93;;;;;;;0.11;75.47;100091.05;125749;1101;104487;-69
2020/12/21 10:25:52;;;;;;;57.80;30.53;;;;;;;0.08;75.43;100086.70;125865;1101;104478;-69
2020/12/21 10:28:20;;;;;;;65.87;35.20;;;;;;;0.08;75.92;100084.09;125611;1093;104439;-69
2020/12/21 10:30:47;;;;;;;65.80;35.03;;;;;;;0.09;75.54;100084.97;125540;1093;104490;-70
2020/12/21 10:33:18;;;;;;;63.67;33.93;;;;;;;0.07;75.45;100071.89;125559;1093;104449;-70
2020/12/21 10:35:46;;;;;;;56.00;32.40;;;;;;;0.07;75.64;100074.52;127793;1101;102549;-69
2020/12/21 10:38:13;;;;;;;64.60;35.70;;;;;;;0.08;75.82;100078.86;127821;1102;102517;-69
2020/12/21 10:40:42;;;;;;;56.37;32.63;;;;;;;0.16;75.72;100077.89;127775;1102;102483;-69
2020/12/21 10:43:09;;;;;;;72.57;39.83;;;;;;;0.25;75.84;100076.01;125710;1101;104525;-69
2020/12/21 10:45:39;;;;;;;63.87;36.07;;;;;;;0.37;76.06;100069.75;125695;1101;104551;-72
2020/12/21 10:48:06;;;;;;;68.50;39.90;;;;;;;0.47;76.00;100072.20;127444;1101;104477;-72
2020/12/21 10:50:33;;;;;;;67.30;38.07;;;;;;;0.54;75.68;100072.12;125846;1101;104420;-73
2020/12/21 10:53:03;;;;;;;70.97;39.93;;;;;;;0.59;75.98;100069.41;125858;1101;104528;-72
2020/12/21 10:55:30;;;;;;;63.50;36.73;;;;;;;0.68;76.26;100069.28;125899;1101;104656;-73
2020/12/21 10:57:57;;;;;;;73.03;42.63;;;;;;;0.77;75.95;100065.63;125950;1101;104416;-71
2020/12/21 11:00:24;;;;;;;76.53;45.17;;;;;;;0.83;76.03;100062.03;125921;1101;104442;-69
2020/12/21 11:02:51;;;;;;;76.50;45.50;;;;;;;0.89;75.73;100062.82;125882;1101;104586;-69